Time;durP1;ratioP1;P1;durP2;ratioP2;P2;SDS_P1;SDS_P2;PMS_P1;PMS_P2;Temp;Humidity;BMP_temperature;BMP_pressure;BME280_temperature;BME280_humidity;BME280_pressure;Samples;Min_cycle;Max_cycle;Signal;HPM_P1;HPM_P2
2023/10/25 00:02:12;;;;;;;7.32;3.58;;;8.10;99.90;;;;;;4976835;28;20030;-68
2023/10/25 00:04:38;;;;;;;7.75;3.67;;;8.10;99.90;;;;;;4989512;28;20153;-70
2023/10/25 00:07:04;;;;;;;8.95;4.18;;;8.20;99.90;;;;;;4985738;28;20116;-69
2023/10/25 00:09:29;;;;;;;8.70;3.67;;;8.20;99.90;;;;;;4986528;28;20049;-70
2023/10/25 00:11:54;;;;;;;7.25;3.45;;;8.10;99.90;;;;;;4980326;28;20034;-70
2023/10/25 00:14:20;;;;;;;7.70;3.63;;;8.20;99.90;;;;;;4988844;28;20441;-69
2023/10/25 00:16:45;;;;;;;9.02;4.47;;;8.10;99.90;;;;;;4984442;28;20034;-69
2023/10/25 00:19:11;;;;;;;7.00;3.53;;;8.10;99.90;;;;;;4989672;28;20050;-69
2023/10/25 00:21:37;;;;;;;7.05;3.13;;;8.10;99.90;;;;;;4982452;28;20105;-69
2023/10/25 00:24:02;;;;;;;6.80;3.55;;;8.10;99.90;;;;;;4983774;28;20034;-71
2023/10/25 00:26:28;;;;;;;13.05;4.13;;;8.10;99.90;;;;;;4988840;28;20371;-70
2023/10/25 00:28:53;;;;;;;8.80;3.92;;;8.20;99.90;;;;;;4982962;28;20031;-69
2023/10/25 00:31:19;;;;;;;6.60;3.28;;;8.20;99.90;;;;;;4977679;28;20046;-69
2023/10/25 00:33:44;;;;;;;8.13;3.90;;;8.20;99.90;;;;;;4987629;28;20436;-69
2023/10/25 00:36:10;;;;;;;8.35;3.70;;;8.20;99.90;;;;;;4998722;28;20471;-69
2023/10/25 00:38:35;;;;;;;7.50;3.53;;;8.20;99.90;;;;;;4990916;28;20030;-68
2023/10/25 00:41:01;;;;;;;8.05;3.75;;;8.20;99.90;;;;;;4988112;28;20076;-73
2023/10/25 00:43:26;;;;;;;7.95;3.90;;;8.10;99.90;;;;;;4981951;28;20538;-69
2023/10/25 00:45:58;;;;;;;6.97;3.50;;;8.10;99.90;;;;;;4987125;28;20034;-70
2023/10/25 00:48:23;;;;;;;7.32;3.55;;;8.10;99.90;;;;;;4993095;28;20386;-69
2023/10/25 00:50:49;;;;;;;8.43;3.80;;;8.00;99.90;;;;;;4990166;28;20049;-70
2023/10/25 00:53:14;;;;;;;8.80;4.10;;;8.10;99.90;;;;;;4988200;28;20057;-69
2023/10/25 00:55:40;;;;;;;6.32;2.70;;;8.00;99.90;;;;;;4990771;28;20046;-69
2023/10/25 00:58:06;;;;;;;8.07;3.58;;;8.00;99.90;;;;;;4988518;28;20498;-69
2023/10/25 01:00:32;;;;;;;7.78;3.28;;;8.10;99.90;;;;;;4985943;28;20058;-69
2023/10/25 01:02:59;;;;;;;8.70;3.58;;;8.00;99.90;;;;;;4984359;28;20080;-69
2023/10/25 01:05:25;;;;;;;8.60;3.33;;;8.00;99.90;;;;;;4980030;28;20369;-69
2023/10/25 01:07:50;;;;;;;7.68;3.55;;;8.00;99.90;;;;;;4984839;28;20376;-69
2023/10/25 01:10:16;;;;;;;8.43;3.28;;;7.90;99.90;;;;;;4989543;28;20038;-71
2023/10/25 01:12:41;;;;;;;6.60;2.95;;;8.00;99.90;;;;;;4986657;28;20097;-70
2023/10/25 01:15:11;;;;;;;9.65;3.50;;;7.90;99.90;;;;;;4990688;28;20030;-69
2023/10/25 01:17:36;;;;;;;6.15;3.00;;;7.90;99.90;;;;;;4985335;28;20092;-69
2023/10/25 01:20:02;;;;;;;8.40;3.72;;;7.80;99.90;;;;;;4983245;28;20022;-69
2023/10/25 01:22:27;;;;;;;10.88;3.88;;;7.80;99.90;;;;;;4991335;28;20027;-72
2023/10/25 01:24:53;;;;;;;8.75;3.33;;;7.90;99.90;;;;;;4983645;28;20082;-70
2023/10/25 01:27:18;;;;;;;7.40;3.50;;;7.80;99.90;;;;;;4984405;28;20037;-70
2023/10/25 01:29:44;;;;;;;6.93;2.90;;;7.80;99.90;;;;;;4985141;28;20030;-71
2023/10/25 01:32:09;;;;;;;9.32;3.40;;;7.80;99.90;;;;;;4990739;28;20389;-69
2023/10/25 01:34:34;;;;;;;7.80;3.17;;;7.90;99.90;;;;;;5000823;28;21625;-70
2023/10/25 01:37:00;;;;;;;5.63;2.97;;;7.80;99.90;;;;;;4985696;28;20037;-70
2023/10/25 01:39:25;;;;;;;8.68;3.47;;;7.80;99.90;;;;;;4980815;28;20387;-69
2023/10/25 01:41:51;;;;;;;7.35;3.50;;;7.80;99.90;;;;;;4989500;28;20042;-70
2023/10/25 01:44:16;;;;;;;7.85;3.55;;;7.80;99.90;;;;;;4992894;28;20038;-69
2023/10/25 01:46:42;;;;;;;7.40;3.47;;;7.80;99.90;;;;;;4993721;28;20034;-69
2023/10/25 01:49:07;;;;;;;9.05;3.92;;;7.80;99.90;;;;;;4992256;28;20480;-69
2023/10/25 01:51:33;;;;;;;9.90;3.90;;;7.90;99.90;;;;;;4991771;28;20049;-70
2023/10/25 01:53:58;;;;;;;10.68;3.60;;;7.90;99.90;;;;;;4988520;28;20042;-71
2023/10/25 01:56:24;;;;;;;5.28;2.30;;;7.80;99.90;;;;;;4984327;28;20365;-71
2023/10/25 01:58:49;;;;;;;8.93;3.67;;;7.80;99.90;;;;;;4988066;28;20034;-69
2023/10/25 02:01:15;;;;;;;9.57;3.78;;;7.90;99.90;;;;;;4993125;28;20360;-69
2023/10/25 02:03:40;;;;;;;7.40;3.15;;;7.90;99.90;;;;;;4984757;28;20034;-69
2023/10/25 02:06:15;;;;;;;5.13;2.63;;;7.90;99.90;;;;;;4990785;28;20039;-70
2023/10/25 02:08:41;;;;;;;6.22;3.53;;;7.90;99.90;;;;;;4982357;28;20019;-70
2023/10/25 02:11:07;;;;;;;9.43;3.67;;;7.90;99.90;;;;;;4981978;28;20038;-69
2023/10/25 02:13:33;;;;;;;7.35;3.30;;;7.90;99.90;;;;;;4985031;28;20394;-70
2023/10/25 02:15:58;;;;;;;7.95;2.92;;;7.80;99.90;;;;;;4986488;28;20043;-69
2023/10/25 02:18:24;;;;;;;7.57;3.05;;;7.80;99.90;;;;;;4989253;28;20030;-70
2023/10/25 02:20:49;;;;;;;11.20;4.13;;;7.80;99.90;;;;;;4977897;28;20042;-70
2023/10/25 02:23:14;;;;;;;7.55;3.65;;;7.80;99.90;;;;;;4987185;28;20045;-70
2023/10/25 02:25:40;;;;;;;9.68;3.13;;;7.80;99.90;;;;;;4992416;28;20094;-71
2023/10/25 02:28:05;;;;;;;8.95;3.67;;;7.80;99.90;;;;;;4981608;28;20384;-69
2023/10/25 02:30:31;;;;;;;8.60;3.95;;;7.80;99.90;;;;;;4992415;28;20034;-69
2023/10/25 02:32:56;;;;;;;8.52;3.22;;;7.70;99.90;;;;;;4991666;28;20030;-69
2023/10/25 02:35:22;;;;;;;7.43;2.90;;;7.70;99.90;;;;;;4988367;28;20065;-69
2023/10/25 02:37:47;;;;;;;7.95;3.25;;;7.60;99.90;;;;;;4988093;28;20027;-70
2023/10/25 02:40:13;;;;;;;7.85;3.42;;;7.60;99.90;;;;;;4981873;28;20034;-70
2023/10/25 02:42:42;;;;;;;8.35;3.33;;;7.70;99.90;;;;;;4980258;28;20038;-71
2023/10/25 02:45:08;;;;;;;6.63;2.80;;;7.70;99.90;;;;;;4986890;28;20026;-70
2023/10/25 02:47:33;;;;;;;8.00;3.03;;;7.70;99.90;;;;;;4991522;28;20035;-70
2023/10/25 02:49:59;;;;;;;7.45;2.85;;;7.70;99.90;;;;;;4981991;28;20487;-70
2023/10/25 02:52:24;;;;;;;9.48;3.47;;;7.70;99.90;;;;;;4987653;28;20034;-68
2023/10/25 02:54:54;;;;;;;7.70;3.05;;;7.60;99.90;;;;;;4978537;28;20039;-69
2023/10/25 02:57:19;;;;;;;7.57;2.88;;;7.60;99.90;;;;;;4988700;28;20045;-69
2023/10/25 02:59:45;;;;;;;8.00;3.55;;;7.50;99.90;;;;;;4978712;28;20224;-69
2023/10/25 03:02:10;;;;;;;6.47;2.53;;;7.60;99.90;;;;;;4986464;28;20035;-70
2023/10/25 03:04:36;;;;;;;7.13;3.03;;;7.60;99.90;;;;;;4989238;28;20034;-69
2023/10/25 03:07:01;;;;;;;8.95;3.55;;;7.60;99.90;;;;;;4989067;28;20031;-69
2023/10/25 03:09:26;;;;;;;4.97;2.72;;;7.60;99.90;;;;;;4988536;28;20026;-70
2023/10/25 03:11:52;;;;;;;6.20;2.25;;;7.60;99.90;;;;;;4987642;28;20057;-71
2023/10/25 03:14:18;;;;;;;7.18;3.30;;;7.60;99.90;;;;;;4989432;28;20069;-69
2023/10/25 03:16:43;;;;;;;7.18;3.10;;;7.60;99.90;;;;;;4988049;28;20384;-70
2023/10/25 03:19:09;;;;;;;6.45;2.72;;;7.70;99.90;;;;;;4983482;28;20086;-70
2023/10/25 03:21:34;;;;;;;6.07;2.83;;;7.60;99.90;;;;;;4987304;28;20391;-70
2023/10/25 03:24:00;;;;;;;7.15;3.25;;;7.70;99.90;;;;;;4982089;28;20030;-69
2023/10/25 03:26:34;;;;;;;6.78;3.22;;;7.70;99.90;;;;;;5055407;28;20381;-73
2023/10/25 03:28:59;;;;;;;6.50;2.97;;;7.60;99.90;;;;;;5048202;28;20084;-69
2023/10/25 03:31:25;;;;;;;6.50;2.95;;;7.60;99.90;;;;;;5041768;28;20060;-69
2023/10/25 03:33:50;;;;;;;5.75;2.90;;;7.50;99.90;;;;;;5045088;28;20029;-70
2023/10/25 03:36:16;;;;;;;6.22;2.67;;;7.60;99.90;;;;;;5045905;28;20095;-69
2023/10/25 03:38:41;;;;;;;6.07;2.65;;;7.60;99.90;;;;;;5057829;28;20029;-69
2023/10/25 03:41:08;;;;;;;7.95;3.67;;;7.50;99.90;;;;;;5043637;28;20033;-69
2023/10/25 03:43:34;;;;;;;7.45;3.28;;;7.60;99.90;;;;;;5028075;28;20092;-69
2023/10/25 03:46:07;;;;;;;5.75;2.88;;;7.50;99.90;;;;;;5048695;28;20033;-69
2023/10/25 03:48:33;;;;;;;5.75;2.47;;;7.60;99.90;;;;;;5041704;28;20041;-70
2023/10/25 03:51:02;;;;;;;6.80;2.75;;;7.60;99.90;;;;;;5045534;28;20072;-70
2023/10/25 03:53:28;;;;;;;5.70;2.53;;;7.50;99.90;;;;;;5047353;28;20104;-69
2023/10/25 03:55:55;;;;;;;6.40;3.15;;;7.50;99.90;;;;;;5046614;28;20369;-70
2023/10/25 03:58:21;;;;;;;7.10;3.42;;;7.60;99.90;;;;;;5039493;28;20080;-70
2023/10/25 04:00:46;;;;;;;6.28;3.22;;;7.50;99.90;;;;;;5040801;28;20470;-69
2023/10/25 04:03:12;;;;;;;5.22;2.80;;;7.40;99.90;;;;;;5048291;28;20029;-69
2023/10/25 04:05:40;;;;;;;6.00;2.75;;;7.50;99.90;;;;;;5043790;28;20029;-70
2023/10/25 04:08:06;;;;;;;6.68;2.78;;;7.50;99.90;;;;;;5053767;28;20040;-69
2023/10/25 04:10:31;;;;;;;4.85;2.50;;;7.50;99.90;;;;;;5051389;28;20034;-71
2023/10/25 04:12:57;;;;;;;5.53;2.42;;;7.40;99.90;;;;;;5043498;28;20099;-69
2023/10/25 04:15:22;;;;;;;6.10;3.05;;;7.50;99.90;;;;;;5050149;28;20392;-70
2023/10/25 04:17:48;;;;;;;7.60;3.00;;;7.40;99.90;;;;;;5043380;28;20033;-69
2023/10/25 04:20:13;;;;;;;5.88;2.83;;;7.40;99.90;;;;;;5041112;28;20025;-69
2023/10/25 04:22:39;;;;;;;7.78;2.90;;;7.40;99.90;;;;;;5039657;28;20188;-69
2023/10/25 04:25:05;;;;;;;7.20;2.80;;;7.40;99.90;;;;;;5040369;28;20087;-69
2023/10/25 04:27:30;;;;;;;6.72;3.30;;;7.50;99.90;;;;;;5040311;28;20078;-67
2023/10/25 04:29:56;;;;;;;6.05;2.42;;;7.40;99.90;;;;;;5048226;28;20052;-66
2023/10/25 04:32:21;;;;;;;7.95;3.00;;;7.40;99.90;;;;;;5046280;28;20407;-67
2023/10/25 04:34:47;;;;;;;4.68;2.40;;;7.40;99.90;;;;;;5033962;28;20037;-66
2023/10/25 04:37:13;;;;;;;5.50;2.45;;;7.40;99.90;;;;;;5040747;28;20535;-66
2023/10/25 04:39:39;;;;;;;5.18;2.38;;;7.30;99.90;;;;;;5036209;28;20025;-67
2023/10/25 04:42:05;;;;;;;6.03;2.70;;;7.30;99.90;;;;;;5027920;28;20052;-66
2023/10/25 04:44:31;;;;;;;5.32;2.70;;;7.30;99.90;;;;;;5037025;28;20111;-67
2023/10/25 04:46:57;;;;;;;5.10;2.58;;;7.30;99.90;;;;;;5037193;28;20045;-66
2023/10/25 04:49:24;;;;;;;4.95;2.80;;;7.30;99.90;;;;;;5032917;28;20075;-67
2023/10/25 04:51:50;;;;;;;6.53;3.22;;;7.30;99.90;;;;;;5030172;28;20033;-67
2023/10/25 04:54:15;;;;;;;7.88;2.90;;;7.20;99.90;;;;;;5035736;28;20037;-67
2023/10/25 04:56:41;;;;;;;6.55;2.60;;;7.20;99.90;;;;;;5028677;28;20088;-66
2023/10/25 04:59:06;;;;;;;5.28;2.50;;;7.20;99.90;;;;;;5030438;28;20033;-66
2023/10/25 05:01:32;;;;;;;5.95;2.53;;;7.20;99.90;;;;;;5021650;28;20061;-67
2023/10/25 05:03:58;;;;;;;6.55;2.90;;;7.10;99.90;;;;;;5027334;28;20065;-66
2023/10/25 05:06:24;;;;;;;6.50;3.15;;;7.10;99.90;;;;;;5028393;28;20033;-66
2023/10/25 05:08:49;;;;;;;4.90;2.63;;;7.10;99.90;;;;;;5025905;28;20436;-66
2023/10/25 05:11:16;;;;;;;4.93;2.33;;;7.10;99.90;;;;;;5031897;28;20041;-67
2023/10/25 05:13:42;;;;;;;4.72;1.90;;;7.10;99.90;;;;;;5028805;28;20469;-68
2023/10/25 05:16:08;;;;;;;4.82;2.38;;;7.10;99.90;;;;;;5040997;28;20079;-66
2023/10/25 05:18:34;;;;;;;5.85;2.30;;;7.00;99.90;;;;;;5035107;28;20064;-66
2023/10/25 05:21:01;;;;;;;7.25;2.65;;;7.10;99.90;;;;;;5029057;28;20466;-68
2023/10/25 05:23:34;;;;;;;7.15;2.88;;;7.00;99.90;;;;;;5029520;28;20053;-66
2023/10/25 05:26:02;;;;;;;5.28;2.47;;;7.00;99.90;;;;;;5030769;28;20490;-66
2023/10/25 05:28:31;;;;;;;4.65;1.92;;;7.10;99.90;;;;;;5029215;28;20059;-66
2023/10/25 05:31:02;;;;;;;5.80;2.30;;;7.00;99.90;;;;;;5024010;28;20037;-67
2023/10/25 05:33:31;;;;;;;4.38;2.10;;;7.00;99.90;;;;;;5028322;28;20033;-67
2023/10/25 05:35:57;;;;;;;6.65;2.35;;;7.10;99.90;;;;;;5031790;28;20037;-67
2023/10/25 05:38:23;;;;;;;7.55;2.90;;;7.00;99.90;;;;;;5038042;28;20096;-66
2023/10/25 05:40:51;;;;;;;4.78;2.85;;;7.00;99.90;;;;;;5028460;28;20124;-66
2023/10/25 05:43:22;;;;;;;4.93;2.55;;;7.00;99.90;;;;;;5016523;28;20070;-66
2023/10/25 05:45:48;;;;;;;3.47;2.13;;;7.00;99.90;;;;;;5035210;28;20530;-66
2023/10/25 05:48:15;;;;;;;4.53;2.20;;;7.00;99.90;;;;;;5018096;28;20033;-66
2023/10/25 05:50:44;;;;;;;3.83;2.20;;;7.00;99.90;;;;;;5034142;28;20581;-66
2023/10/25 05:53:13;;;;;;;4.32;2.22;;;7.00;99.90;;;;;;5031481;28;20072;-67
2023/10/25 05:55:39;;;;;;;5.70;2.70;;;7.00;99.90;;;;;;5032113;28;20067;-67
2023/10/25 05:58:05;;;;;;;4.72;2.25;;;7.00;99.90;;;;;;5022982;28;20037;-66
2023/10/25 06:00:31;;;;;;;4.93;2.20;;;7.00;99.90;;;;;;5026711;28;20121;-66
2023/10/25 06:02:59;;;;;;;4.82;2.72;;;7.10;99.90;;;;;;5022449;28;20482;-66
2023/10/25 06:05:25;;;;;;;4.20;2.15;;;7.00;99.90;;;;;;5026415;28;20037;-66
2023/10/25 06:07:51;;;;;;;5.47;2.28;;;7.00;99.90;;;;;;5021186;28;20021;-66
2023/10/25 06:10:17;;;;;;;5.03;2.50;;;7.00;99.90;;;;;;5028020;28;20117;-66
2023/10/25 06:12:43;;;;;;;3.25;1.88;;;7.00;99.90;;;;;;5029025;28;20036;-67
2023/10/25 06:15:09;;;;;;;4.20;2.42;;;7.00;99.90;;;;;;5038564;28;20037;-67
2023/10/25 06:17:35;;;;;;;4.68;1.95;;;7.10;99.90;;;;;;5030128;28;20033;-66
2023/10/25 06:20:01;;;;;;;7.78;2.40;;;7.00;99.90;;;;;;5026920;28;20025;-66
2023/10/25 06:22:27;;;;;;;3.85;1.80;;;7.10;99.90;;;;;;5022915;28;20105;-66
2023/10/25 06:24:53;;;;;;;4.38;2.20;;;7.10;99.90;;;;;;5024017;28;20048;-66
2023/10/25 06:27:18;;;;;;;2.90;1.67;;;7.10;99.90;;;;;;5023132;28;20033;-68
2023/10/25 06:29:44;;;;;;;3.55;1.70;;;7.10;99.90;;;;;;5017256;28;20042;-66
2023/10/25 06:32:09;;;;;;;3.92;1.88;;;7.10;99.90;;;;;;5021472;28;20041;-68
2023/10/25 06:34:35;;;;;;;5.10;2.00;;;7.10;99.90;;;;;;5034161;28;20037;-66
2023/10/25 06:37:00;;;;;;;6.72;2.90;;;7.10;99.90;;;;;;5027227;28;20037;-66
2023/10/25 06:39:26;;;;;;;4.45;2.30;;;7.10;99.90;;;;;;5028791;28;20034;-66
2023/10/25 06:41:52;;;;;;;5.43;2.53;;;7.20;99.90;;;;;;5019093;28;20025;-67
2023/10/25 06:44:18;;;;;;;4.68;2.38;;;7.20;99.90;;;;;;5023056;28;20029;-66
2023/10/25 06:46:43;;;;;;;7.57;2.15;;;7.20;99.90;;;;;;5024010;28;20156;-67
2023/10/25 06:49:09;;;;;;;5.55;2.38;;;7.20;99.90;;;;;;5020730;28;20121;-67
2023/10/25 06:51:35;;;;;;;7.40;2.58;;;7.20;99.90;;;;;;5019844;28;20065;-67
2023/10/25 06:54:01;;;;;;;4.95;1.90;;;7.20;99.90;;;;;;5021296;28;20029;-68
2023/10/25 06:56:29;;;;;;;3.38;1.60;;;7.20;99.90;;;;;;5021586;28;20562;-68
2023/10/25 06:58:54;;;;;;;4.40;2.33;;;7.30;99.90;;;;;;5018487;28;20029;-67
2023/10/25 07:01:22;;;;;;;4.90;1.85;;;7.30;99.90;;;;;;5024601;28;20025;-67
2023/10/25 07:03:49;;;;;;;3.20;1.35;;;7.30;99.90;;;;;;5021118;28;20091;-67
2023/10/25 07:06:16;;;;;;;2.08;1.48;;;7.30;99.90;;;;;;5017541;28;20049;-65
2023/10/25 07:08:42;;;;;;;4.57;2.00;;;7.30;99.90;;;;;;5022542;28;20557;-66
2023/10/25 07:11:07;;;;;;;4.85;2.25;;;7.30;99.90;;;;;;5028620;28;20579;-66
2023/10/25 07:13:33;;;;;;;3.55;1.73;;;7.40;99.90;;;;;;5020389;28;20091;-67
2023/10/25 07:15:59;;;;;;;4.07;1.88;;;7.40;99.90;;;;;;5026400;28;20454;-66
2023/10/25 07:18:24;;;;;;;3.60;2.20;;;7.40;99.90;;;;;;5025856;28;20082;-65
2023/10/25 07:20:50;;;;;;;2.88;1.52;;;7.50;99.90;;;;;;5025842;28;20029;-66
2023/10/25 07:23:16;;;;;;;4.53;1.88;;;7.60;99.90;;;;;;5026939;28;20128;-66
2023/10/25 07:25:43;;;;;;;4.13;1.73;;;7.60;99.90;;;;;;5024762;28;20495;-65
2023/10/25 07:28:09;;;;;;;2.70;1.67;;;7.70;99.90;;;;;;5031721;28;20515;-67
2023/10/25 07:30:34;;;;;;;4.25;1.85;;;7.70;99.90;;;;;;5024425;28;20037;-67
2023/10/25 07:33:00;;;;;;;3.33;1.80;;;7.70;99.90;;;;;;5025992;28;20083;-65
2023/10/25 07:35:26;;;;;;;3.45;1.88;;;7.80;99.90;;;;;;5021056;28;20127;-65
2023/10/25 07:37:51;;;;;;;4.53;1.95;;;7.80;99.90;;;;;;5023667;28;20033;-65
2023/10/25 07:40:17;;;;;;;4.97;1.88;;;7.80;99.90;;;;;;5020001;28;20037;-65
2023/10/25 07:42:42;;;;;;;2.92;1.50;;;8.00;99.90;;;;;;5022352;28;20052;-65
2023/10/25 07:45:08;;;;;;;3.58;1.75;;;8.00;99.90;;;;;;5030726;28;20101;-66
2023/10/25 07:47:34;;;;;;;2.38;1.58;;;8.10;99.90;;;;;;5027948;28;20076;-66
2023/10/25 07:49:59;;;;;;;3.38;1.65;;;8.20;99.90;;;;;;5024081;28;20029;-66
2023/10/25 07:52:27;;;;;;;3.78;1.40;;;8.40;99.90;;;;;;5027498;28;20030;-66
2023/10/25 07:54:53;;;;;;;3.40;1.65;;;8.40;99.90;;;;;;5019683;28;20030;-69
2023/10/25 07:57:19;;;;;;;3.53;1.42;;;8.40;99.90;;;;;;5025752;28;20082;-65
2023/10/25 07:59:45;;;;;;;5.32;1.63;;;8.60;99.90;;;;;;5026630;28;20108;-65
2023/10/25 08:02:10;;;;;;;4.93;2.13;;;8.50;99.90;;;;;;5023190;28;20177;-66
2023/10/25 08:04:36;;;;;;;3.22;1.45;;;8.60;99.90;;;;;;5024313;28;20037;-65
2023/10/25 08:07:01;;;;;;;3.30;1.52;;;8.70;99.90;;;;;;5023233;28;20469;-65
2023/10/25 08:09:27;;;;;;;2.50;1.50;;;8.80;99.90;;;;;;5027660;28;20378;-66
2023/10/25 08:11:52;;;;;;;4.88;1.65;;;8.90;99.90;;;;;;5022356;28;20474;-67
2023/10/25 08:14:19;;;;;;;3.08;1.75;;;9.00;99.90;;;;;;5028550;28;20037;-66
2023/10/25 08:16:45;;;;;;;3.17;1.65;;;9.10;99.90;;;;;;5023475;28;20073;-66
2023/10/25 08:19:10;;;;;;;4.90;1.73;;;9.20;99.90;;;;;;5027847;28;20045;-65
2023/10/25 08:21:36;;;;;;;4.00;1.70;;;9.30;99.90;;;;;;5026143;28;20038;-65
2023/10/25 08:24:05;;;;;;;2.85;1.88;;;9.40;99.90;;;;;;5021391;28;20417;-66
2023/10/25 08:26:34;;;;;;;3.25;1.55;;;9.60;99.90;;;;;;5024851;28;20501;-70
2023/10/25 08:29:01;;;;;;;1.75;1.02;;;9.60;99.90;;;;;;5020098;28;20028;-70
2023/10/25 08:31:27;;;;;;;2.22;1.60;;;9.60;99.90;;;;;;5022860;28;20038;-66
2023/10/25 08:33:52;;;;;;;3.97;1.70;;;9.80;99.90;;;;;;5026900;28;20036;-66
2023/10/25 08:36:18;;;;;;;3.15;1.52;;;9.90;99.80;;;;;;5017385;28;20607;-68
2023/10/25 08:38:43;;;;;;;3.63;1.90;;;9.90;99.60;;;;;;5028401;28;20037;-66
2023/10/25 08:41:09;;;;;;;2.80;1.27;;;10.00;99.50;;;;;;5021937;28;20466;-66
2023/10/25 08:43:35;;;;;;;3.50;1.58;;;10.10;98.90;;;;;;5020566;28;20474;-66
2023/10/25 08:46:03;;;;;;;2.28;1.40;;;10.10;98.60;;;;;;5025158;28;20026;-66
2023/10/25 08:48:28;;;;;;;3.35;1.42;;;10.30;98.30;;;;;;5021824;28;20596;-66
2023/10/25 08:50:55;;;;;;;1.75;1.15;;;10.40;98.30;;;;;;5034447;28;20111;-66
2023/10/25 08:53:23;;;;;;;2.20;1.23;;;10.50;98.00;;;;;;5040154;28;20025;-66
2023/10/25 08:55:52;;;;;;;2.45;1.30;;;10.50;97.50;;;;;;5020637;28;20458;-68
2023/10/25 08:58:23;;;;;;;3.25;1.38;;;10.60;97.00;;;;;;5025356;28;20103;-67
2023/10/25 09:00:54;;;;;;;2.78;1.17;;;10.70;97.20;;;;;;4973667;28;20392;-66
2023/10/25 09:03:32;;;;;;;2.47;0.95;;;10.60;96.30;;;;;;4985384;28;20030;-67
2023/10/25 09:06:05;;;;;;;3.72;1.55;;;10.80;96.50;;;;;;4987775;28;20042;-68
2023/10/25 09:08:34;;;;;;;2.50;1.38;;;10.90;96.80;;;;;;4999555;28;20356;-66
2023/10/25 09:11:01;;;;;;;3.60;1.20;;;11.00;96.30;;;;;;4994809;28;20034;-68
2023/10/25 09:13:28;;;;;;;2.58;1.35;;;11.00;95.50;;;;;;4988074;28;20035;-67
2023/10/25 09:16:10;;;;;;;1.38;0.98;;;11.20;96.30;;;;;;4987823;28;20022;-66
2023/10/25 09:18:38;;;;;;;1.88;1.23;;;11.20;94.70;;;;;;4985102;28;20027;-66
2023/10/25 09:21:04;;;;;;;2.10;1.30;;;11.30;94.70;;;;;;4984273;28;20475;-66
2023/10/25 09:23:30;;;;;;;3.60;1.63;;;11.50;94.80;;;;;;4995104;28;20034;-67
2023/10/25 09:25:59;;;;;;;2.50;1.42;;;11.60;95.50;;;;;;4986950;28;20038;-68
2023/10/25 09:28:27;;;;;;;2.17;1.40;;;11.70;95.20;;;;;;5000640;28;20092;-67
2023/10/25 09:30:54;;;;;;;2.60;1.60;;;11.80;94.90;;;;;;4988324;28;20018;-67
2023/10/25 09:33:20;;;;;;;3.92;1.73;;;11.60;93.60;;;;;;4984027;28;20026;-67
2023/10/25 09:35:46;;;;;;;2.05;1.00;;;11.50;94.20;;;;;;4982134;28;20073;-69
2023/10/25 09:38:11;;;;;;;2.83;1.60;;;11.40;94.00;;;;;;4979415;28;20463;-68
2023/10/25 09:40:38;;;;;;;2.75;1.05;;;11.40;94.70;;;;;;4982812;28;20118;-69
2023/10/25 09:43:13;;;;;;;1.98;1.00;;;11.40;95.20;;;;;;4980033;28;20420;-66
2023/10/25 09:45:39;;;;;;;3.53;1.30;;;11.40;95.10;;;;;;4979407;28;20038;-67
2023/10/25 09:48:07;;;;;;;1.58;1.08;;;11.40;94.40;;;;;;4984575;28;20383;-67
2023/10/25 09:50:37;;;;;;;1.80;1.15;;;11.60;95.10;;;;;;4975667;28;20030;-67
2023/10/25 09:53:23;;;;;;;1.77;1.00;;;11.80;94.10;;;;;;4990741;28;20037;-69
2023/10/25 09:55:55;;;;;;;1.75;1.02;;;12.00;93.40;;;;;;4981872;28;20038;-67
2023/10/25 09:58:24;;;;;;;1.40;0.85;;;12.00;91.80;;;;;;4978929;28;20038;-67
2023/10/25 10:00:50;;;;;;;1.48;0.93;;;12.10;93.30;;;;;;4958955;28;20047;-68
2023/10/25 10:03:32;;;;;;;1.58;0.82;;;12.10;92.70;;;;;;4985945;28;20085;-67
2023/10/25 10:06:30;;;;;;;1.73;0.95;;;12.40;93.50;;;;;;4987625;28;20038;-67
2023/10/25 10:09:22;;;;;;;1.35;0.90;;;12.10;92.00;;;;;;4982409;28;20041;-67
2023/10/25 10:11:53;;;;;;;1.48;0.98;;;12.30;91.90;;;;;;4982977;28;20049;-69
2023/10/25 10:14:35;;;;;;;1.90;1.13;;;12.50;92.70;;;;;;4979763;28;20030;-67
2023/10/25 10:17:14;;;;;;;1.60;1.00;;;12.70;92.50;;;;;;4990097;28;20443;-67
2023/10/25 10:19:42;;;;;;;1.98;0.80;;;13.00;92.30;;;;;;4986265;28;21451;-69
2023/10/25 10:22:08;;;;;;;2.63;1.08;;;12.80;90.70;;;;;;4979363;28;20125;-67
2023/10/25 10:24:56;;;;;;;1.75;1.00;;;12.90;90.90;;;;;;4980521;28;20125;-67
2023/10/25 10:27:26;;;;;;;1.77;1.20;;;13.00;89.70;;;;;;4973961;28;20035;-68
2023/10/25 10:29:52;;;;;;;2.28;1.20;;;13.10;90.40;;;;;;4988144;28;20030;-68
2023/10/25 10:32:18;;;;;;;2.55;1.30;;;13.00;88.90;;;;;;4982172;28;20041;-69
2023/10/25 10:34:43;;;;;;;1.75;0.90;;;13.00;90.00;;;;;;4975286;28;20031;-67
2023/10/25 10:37:14;;;;;;;1.60;0.98;;;13.00;89.60;;;;;;4981766;28;20379;-68
2023/10/25 10:39:55;;;;;;;;;;;13.00;88.90;;;;;;4986099;28;20041;-67
2023/10/25 10:42:25;;;;;;;0.82;0.65;;;13.20;89.50;;;;;;4986050;28;20306;-67
2023/10/25 10:44:51;;;;;;;1.10;0.63;;;13.60;89.40;;;;;;4985693;28;20027;-69
2023/10/25 10:47:21;;;;;;;2.35;1.00;;;13.80;88.40;;;;;;4989879;28;20293;-67
2023/10/25 10:49:56;;;;;;;4.03;1.10;;;13.90;87.70;;;;;;4983979;28;20527;-67
2023/10/25 10:52:22;;;;;;;2.08;0.82;;;13.90;87.00;;;;;;4991204;28;20368;-69
2023/10/25 10:54:47;;;;;;;0.70;0.68;;;13.80;85.50;;;;;;4988540;28;20042;-68
2023/10/25 10:57:14;;;;;;;1.52;0.90;;;14.00;87.30;;;;;;4988734;28;20038;-68
2023/10/25 10:59:45;;;;;;;1.55;0.50;;;14.10;87.20;;;;;;4965902;28;20046;-68
2023/10/25 11:02:12;;;;;;;1.08;0.75;;;14.00;86.00;;;;;;4983741;28;20058;-68
2023/10/25 11:04:41;;;;;;;0.90;0.60;;;13.80;86.10;;;;;;4987113;28;20035;-70
2023/10/25 11:07:07;;;;;;;1.40;0.47;;;14.10;86.40;;;;;;4983819;28;20042;-69
2023/10/25 11:09:32;;;;;;;0.80;0.50;;;14.60;87.30;;;;;;4988242;28;20042;-68
2023/10/25 11:12:10;;;;;;;1.27;0.80;;;14.60;85.10;;;;;;4984062;28;20039;-69
2023/10/25 11:14:41;;;;;;;1.48;0.63;;;14.90;85.90;;;;;;4993625;28;20038;-67
2023/10/25 11:17:07;;;;;;;1.67;0.63;;;15.00;83.30;;;;;;4991367;28;20029;-67
2023/10/25 11:19:33;;;;;;;1.02;0.30;;;15.10;83.10;;;;;;4996746;28;20489;-68
2023/10/25 11:21:59;;;;;;;0.28;0.28;;;15.30;83.20;;;;;;4978327;28;20081;-68
2023/10/25 11:24:25;;;;;;;2.75;0.65;;;15.50;81.60;;;;;;4988286;28;20070;-67
2023/10/25 11:26:52;;;;;;;1.23;0.60;;;15.50;81.90;;;;;;4991412;28;20049;-71
2023/10/25 11:29:18;;;;;;;1.58;0.30;;;15.30;82.10;;;;;;4981092;28;20042;-68
2023/10/25 11:31:44;;;;;;;1.08;0.43;;;15.80;79.80;;;;;;4976757;28;20384;-68
2023/10/25 11:34:10;;;;;;;1.02;0.30;;;15.50;80.00;;;;;;4985946;28;20070;-68
2023/10/25 11:36:35;;;;;;;1.70;0.75;;;15.70;80.30;;;;;;4984871;28;20034;-68
2023/10/25 11:39:06;;;;;;;2.65;0.93;;;16.00;79.40;;;;;;4988862;28;20518;-68
2023/10/25 11:41:31;;;;;;;2.35;1.00;;;16.00;77.30;;;;;;4984682;28;20073;-71
2023/10/25 11:43:57;;;;;;;3.90;1.35;;;15.90;77.90;;;;;;4989696;28;20054;-68
2023/10/25 11:46:24;;;;;;;3.80;1.60;;;15.50;79.10;;;;;;4989742;28;20038;-69
2023/10/25 11:48:50;;;;;;;4.22;1.98;;;15.60;79.70;;;;;;4989360;28;20042;-68
2023/10/25 11:51:18;;;;;;;5.47;1.70;;;15.70;80.60;;;;;;4992040;28;20037;-67
2023/10/25 11:53:43;;;;;;;4.05;1.70;;;15.90;77.90;;;;;;4992373;28;20401;-68
2023/10/25 11:56:09;;;;;;;3.60;1.50;;;15.50;76.40;;;;;;4997497;28;20031;-68
2023/10/25 11:58:34;;;;;;;2.67;1.23;;;15.30;77.70;;;;;;4984884;28;20034;-68
2023/10/25 12:01:04;;;;;;;2.15;0.95;;;15.10;78.40;;;;;;4984374;28;20045;-68
2023/10/25 12:03:29;;;;;;;3.17;0.90;;;15.30;78.30;;;;;;5013193;28;20021;-68
2023/10/25 12:05:55;;;;;;;3.42;0.80;;;15.30;79.70;;;;;;5015043;28;20037;-68
2023/10/25 12:08:20;;;;;;;0.57;0.28;;;15.50;75.80;;;;;;5012720;28;20042;-68
2023/10/25 12:10:46;;;;;;;0.98;0.57;;;15.50;77.40;;;;;;5009467;28;20455;-67
2023/10/25 12:13:11;;;;;;;1.27;0.30;;;15.60;77.60;;;;;;5011918;28;20034;-67
2023/10/25 12:15:37;;;;;;;1.05;0.35;;;15.80;75.20;;;;;;5004886;28;20391;-69
2023/10/25 12:18:02;;;;;;;1.27;0.22;;;16.00;74.10;;;;;;5003539;28;20423;-68
2023/10/25 12:20:28;;;;;;;1.38;0.40;;;16.00;76.50;;;;;;5009788;28;20324;-69
2023/10/25 12:22:54;;;;;;;0.57;0.30;;;16.00;75.70;;;;;;5007331;28;20030;-69
2023/10/25 12:25:20;;;;;;;0.30;0.30;;;15.80;76.60;;;;;;5003513;28;20054;-68
2023/10/25 12:27:45;;;;;;;0.60;0.40;;;15.60;77.30;;;;;;5003950;28;20088;-68
2023/10/25 12:30:11;;;;;;;0.68;0.20;;;15.20;77.20;;;;;;5015380;28;20041;-67
2023/10/25 12:32:37;;;;;;;1.27;0.30;;;15.00;79.80;;;;;;5010267;28;20132;-68
2023/10/25 12:35:02;;;;;;;1.70;0.20;;;15.20;79.50;;;;;;5006045;28;20117;-67
2023/10/25 12:37:29;;;;;;;2.30;0.68;;;15.00;79.80;;;;;;5006550;28;20050;-67
2023/10/25 12:39:55;;;;;;;0.98;0.35;;;14.60;80.80;;;;;;5001807;28;20030;-68
2023/10/25 12:42:20;;;;;;;0.52;0.40;;;14.50;80.00;;;;;;5000895;28;20479;-67
2023/10/25 12:44:46;;;;;;;0.55;0.47;;;14.40;80.00;;;;;;5000830;28;20501;-68
2023/10/25 12:47:11;;;;;;;2.30;0.50;;;14.50;81.60;;;;;;5006622;28;20037;-67
2023/10/25 12:49:37;;;;;;;1.38;0.38;;;14.30;80.10;;;;;;5007627;28;20045;-69
2023/10/25 12:52:04;;;;;;;1.85;0.57;;;14.50;80.20;;;;;;5001070;28;20109;-68